Time;durP1;ratioP1;P1;durP2;ratioP2;P2;SDS_P1;SDS_P2;PMS_P1;PMS_P2;Temp;Humidity;BMP_temperature;BMP_pressure;BME280_temperature;BME280_humidity;BME280_pressure;Samples;Min_cycle;Max_cycle;Signal;HPM_P1;HPM_P2
2022/09/16 00:02:19;;;;;;;13.13;12.53;;;17.50;36.90;;;;;;4997208;28;20178;-51
2022/09/16 00:04:45;;;;;;;13.90;13.30;;;17.60;36.70;;;;;;4997302;28;20537;-47
2022/09/16 00:07:11;;;;;;;13.70;13.13;;;17.60;36.50;;;;;;4997117;28;20289;-47
2022/09/16 00:09:37;;;;;;;13.87;13.07;;;17.70;36.10;;;;;;4996871;28;20534;-48
2022/09/16 00:12:04;;;;;;;12.73;12.20;;;17.60;36.40;;;;;;4996713;28;20270;-48
2022/09/16 00:14:30;;;;;;;13.37;12.67;;;17.40;36.70;;;;;;4996675;28;20412;-50
2022/09/16 00:16:55;;;;;;;14.37;13.50;;;17.20;37.80;;;;;;4996860;28;20514;-50
2022/09/16 00:19:22;;;;;;;14.60;13.80;;;17.00;38.00;;;;;;4996927;28;20236;-47
2022/09/16 00:21:48;;;;;;;13.63;13.03;;;16.90;38.40;;;;;;4996408;28;20193;-49
2022/09/16 00:24:15;;;;;;;13.20;12.50;;;17.00;38.70;;;;;;4996692;28;20416;-48
2022/09/16 00:26:44;;;;;;;13.20;12.40;;;17.00;38.20;;;;;;4996508;28;20592;-48
2022/09/16 00:29:10;;;;;;;13.10;12.50;;;17.00;38.90;;;;;;4996446;28;20491;-47
2022/09/16 00:31:35;;;;;;;13.73;13.13;;;17.20;38.10;;;;;;4996406;28;21027;-42
2022/09/16 00:34:02;;;;;;;12.93;12.23;;;17.30;37.90;;;;;;4995639;28;20380;-42
2022/09/16 00:36:29;;;;;;;13.30;12.70;;;17.40;38.00;;;;;;4996751;28;20427;-44
2022/09/16 00:38:55;;;;;;;13.17;12.47;;;17.50;37.30;;;;;;4996325;28;20412;-42
2022/09/16 00:41:27;;;;;;;13.93;13.27;;;17.50;37.20;;;;;;4996162;28;20475;-40
2022/09/16 00:43:54;;;;;;;12.83;12.13;;;17.50;37.00;;;;;;5013864;28;20466;-42
2022/09/16 00:46:28;;;;;;;13.07;12.47;;;17.60;37.10;;;;;;4996439;28;20490;-44
2022/09/16 00:48:54;;;;;;;13.97;13.37;;;17.60;36.80;;;;;;4996170;28;20830;-42
2022/09/16 00:51:20;;;;;;;13.50;12.70;;;17.60;37.20;;;;;;4996181;28;20467;-47
2022/09/16 00:53:51;;;;;;;13.43;12.80;;;17.60;37.20;;;;;;4996124;28;20559;-47
2022/09/16 00:56:22;;;;;;;13.77;13.17;;;17.50;37.80;;;;;;4996120;28;20416;-52
2022/09/16 00:59:00;;;;;;;13.30;12.70;;;17.50;38.10;;;;;;4996055;28;20420;-42
2022/09/16 01:01:27;;;;;;;14.37;13.63;;;17.50;38.10;;;;;;4995656;28;20439;-44
2022/09/16 01:03:56;;;;;;;14.07;13.37;;;17.60;37.70;;;;;;4995853;28;20415;-40
2022/09/16 01:06:24;;;;;;;14.10;13.50;;;17.50;38.10;;;;;;4995544;28;20417;-47
2022/09/16 01:08:50;;;;;;;13.33;12.67;;;17.40;38.00;;;;;;4995806;28;20420;-47
2022/09/16 01:11:16;;;;;;;13.00;12.40;;;17.10;38.40;;;;;;5013327;28;20590;-40
2022/09/16 01:13:43;;;;;;;13.33;12.73;;;17.00;38.70;;;;;;4995857;28;20500;-46
2022/09/16 01:16:33;;;;;;;14.17;13.40;;;16.80;39.80;;;;;;5013206;28;20177;-41
2022/09/16 01:19:21;;;;;;;13.23;12.70;;;16.70;40.50;;;;;;4995640;28;20417;-45
2022/09/16 01:22:03;;;;;;;14.27;13.10;;;16.60;41.30;;;;;;4995660;28;20793;-44
2022/09/16 01:24:49;;;;;;;12.87;12.37;;;16.50;41.50;;;;;;4995238;28;20570;-47
2022/09/16 01:27:42;;;;;;;12.57;12.07;;;16.60;41.30;;;;;;4995245;28;20786;-43
2022/09/16 01:30:32;;;;;;;14.37;13.67;;;16.80;41.00;;;;;;4995016;28;20427;-42
2022/09/16 01:33:00;;;;;;;13.90;13.17;;;17.00;40.40;;;;;;5013092;28;20529;-44
2022/09/16 01:35:38;;;;;;;13.27;12.77;;;17.10;40.00;;;;;;4995505;28;20424;-42
2022/09/16 01:38:21;;;;;;;13.20;12.60;;;17.20;39.70;;;;;;4995190;28;20462;-41
2022/09/16 01:41:08;;;;;;;13.00;12.37;;;17.20;39.10;;;;;;4995209;28;20523;-40
2022/09/16 01:43:36;;;;;;;13.97;13.17;;;17.30;38.90;;;;;;4965810;28;20408;-41
2022/09/16 01:46:28;;;;;;;13.73;12.73;;;17.30;38.40;;;;;;4994973;28;20424;-40
2022/09/16 01:49:07;;;;;;;14.17;13.57;;;17.30;38.40;;;;;;4987095;28;20421;-40
2022/09/16 01:51:48;;;;;;;14.10;13.20;;;17.20;38.10;;;;;;4994991;28;20982;-41
2022/09/16 01:54:41;;;;;;;13.17;12.47;;;17.20;39.00;;;;;;4995056;28;20785;-43
2022/09/16 01:57:18;;;;;;;13.60;12.90;;;17.30;37.90;;;;;;4995210;28;20416;-43
2022/09/16 01:59:50;;;;;;;13.37;12.67;;;17.30;38.00;;;;;;4995013;28;20416;-42
2022/09/16 02:02:28;;;;;;;13.13;12.53;;;17.30;38.00;;;;;;4994656;28;20428;-43
2022/09/16 02:04:57;;;;;;;13.87;12.93;;;17.30;37.90;;;;;;4994992;28;20420;-43
2022/09/16 02:07:29;;;;;;;13.47;12.77;;;17.30;37.90;;;;;;4994809;28;20409;-43
2022/09/16 02:10:05;;;;;;;13.90;13.10;;;17.20;37.80;;;;;;4994695;28;20420;-47
2022/09/16 02:12:37;;;;;;;13.57;12.77;;;17.20;37.70;;;;;;4995010;28;20459;-44
2022/09/16 02:15:08;;;;;;;13.40;12.70;;;17.20;36.50;;;;;;4994908;28;20412;-46
2022/09/16 02:17:37;;;;;;;13.37;12.77;;;17.20;35.90;;;;;;4994994;28;20424;-44
2022/09/16 02:20:13;;;;;;;13.40;12.60;;;17.10;35.90;;;;;;4994233;28;20423;-44
2022/09/16 02:22:43;;;;;;;14.37;13.23;;;17.10;35.30;;;;;;4994636;28;20416;-45
2022/09/16 02:25:12;;;;;;;13.63;13.03;;;17.10;35.00;;;;;;4994312;28;20448;-44
2022/09/16 02:27:39;;;;;;;13.13;12.40;;;16.90;35.00;;;;;;4994435;28;20412;-46
2022/09/16 02:30:08;;;;;;;13.50;12.90;;;16.80;36.00;;;;;;4994359;28;20439;-41
2022/09/16 02:32:40;;;;;;;13.80;13.20;;;16.90;35.50;;;;;;4994341;28;20487;-45
2022/09/16 02:35:10;;;;;;;12.90;12.40;;;16.80;35.70;;;;;;4993930;28;20446;-46
2022/09/16 02:37:41;;;;;;;12.57;12.03;;;16.60;36.80;;;;;;4994225;28;20542;-47
2022/09/16 02:40:14;;;;;;;12.90;12.30;;;16.40;37.10;;;;;;4994302;28;20420;-49
2022/09/16 02:42:40;;;;;;;13.83;13.10;;;16.30;37.00;;;;;;4994225;28;20512;-49
2022/09/16 02:45:07;;;;;;;13.60;13.00;;;16.20;37.60;;;;;;4994378;28;20503;-49
2022/09/16 02:47:55;;;;;;;11.67;11.20;;;16.30;37.10;;;;;;4994368;28;20181;-45
2022/09/16 02:50:29;;;;;;;12.10;11.50;;;16.50;37.00;;;;;;4993812;28;20880;-49
2022/09/16 02:53:01;;;;;;;12.63;12.03;;;16.50;36.00;;;;;;4994248;28;20494;-48
2022/09/16 02:55:36;;;;;;;13.23;12.60;;;16.50;36.40;;;;;;5011519;28;20397;-50
2022/09/16 02:58:03;;;;;;;12.70;12.10;;;16.50;35.70;;;;;;4995844;28;20490;-49
2022/09/16 03:00:34;;;;;;;12.87;12.07;;;16.60;35.20;;;;;;4997850;28;20467;-53
2022/09/16 03:03:00;;;;;;;12.30;11.70;;;16.70;34.70;;;;;;4998555;28;20491;-47
2022/09/16 03:05:28;;;;;;;12.90;12.30;;;16.80;34.50;;;;;;4997695;28;20427;-48
2022/09/16 03:07:54;;;;;;;12.37;11.77;;;16.90;34.50;;;;;;4998148;28;20424;-50
2022/09/16 03:10:24;;;;;;;12.30;11.80;;;16.90;34.10;;;;;;4997758;28;20424;-51
2022/09/16 03:12:57;;;;;;;13.30;12.60;;;16.80;33.50;;;;;;4997797;28;20452;-48
2022/09/16 03:15:33;;;;;;;13.10;12.60;;;16.70;34.40;;;;;;4997765;28;20408;-49
2022/09/16 03:18:08;;;;;;;13.13;12.33;;;16.80;34.10;;;;;;4997750;28;20419;-46
2022/09/16 03:20:59;;;;;;;12.90;12.30;;;16.90;33.70;;;;;;4997954;28;20412;-47
2022/09/16 03:23:34;;;;;;;13.10;12.47;;;17.00;33.20;;;;;;4997870;28;20448;-51
2022/09/16 03:26:07;;;;;;;13.17;12.57;;;17.00;33.10;;;;;;4997832;28;20432;-48
2022/09/16 03:29:04;;;;;;;12.10;11.60;;;17.10;32.80;;;;;;4997415;28;20420;-49
2022/09/16 03:31:50;;;;;;;13.60;12.80;;;17.10;32.60;;;;;;4989629;28;20883;-47
2022/09/16 03:34:31;;;;;;;12.80;12.13;;;16.90;32.90;;;;;;4997602;28;20768;-47
2022/09/16 03:37:02;;;;;;;12.50;12.10;;;16.90;33.10;;;;;;4997581;28;20417;-46
2022/09/16 03:39:28;;;;;;;12.33;11.90;;;16.80;32.70;;;;;;4997644;28;20769;-46
2022/09/16 03:41:58;;;;;;;13.13;12.63;;;16.70;33.40;;;;;;4997061;28;20419;-44
2022/09/16 03:44:35;;;;;;;13.63;13.03;;;16.70;33.30;;;;;;4997484;28;20493;-49
2022/09/16 03:47:02;;;;;;;13.60;13.00;;;16.70;34.00;;;;;;4997111;28;20420;-51
2022/09/16 03:49:29;;;;;;;13.13;12.40;;;16.80;33.30;;;;;;5014698;28;20444;-47
2022/09/16 03:51:55;;;;;;;13.80;12.87;;;16.80;32.30;;;;;;4996850;28;20455;-48
2022/09/16 03:54:21;;;;;;;13.50;13.00;;;16.60;32.80;;;;;;4997005;28;20423;-49
2022/09/16 03:56:46;;;;;;;13.83;13.03;;;16.40;33.40;;;;;;4997224;28;20420;-48
2022/09/16 03:59:12;;;;;;;12.77;12.27;;;16.20;33.90;;;;;;4997212;28;20177;-49
2022/09/16 04:01:38;;;;;;;13.60;13.10;;;16.10;34.30;;;;;;4997125;28;20181;-46
2022/09/16 04:04:03;;;;;;;14.73;14.03;;;16.20;34.60;;;;;;4996668;28;20185;-42
2022/09/16 04:06:29;;;;;;;13.87;13.27;;;16.10;34.50;;;;;;4997080;28;20235;-41
2022/09/16 04:08:59;;;;;;;13.97;13.40;;;16.10;34.90;;;;;;4996045;28;20193;-43
2022/09/16 04:11:28;;;;;;;14.10;13.10;;;16.20;34.80;;;;;;4996618;28;20228;-43
2022/09/16 04:13:54;;;;;;;15.40;14.30;;;16.40;34.40;;;;;;4996960;28;20424;-41
2022/09/16 04:16:20;;;;;;;16.00;15.03;;;16.60;34.00;;;;;;4996675;28;20404;-40
2022/09/16 04:18:47;;;;;;;14.63;13.73;;;16.70;33.70;;;;;;4996586;28;20637;-44
2022/09/16 04:21:12;;;;;;;14.63;13.83;;;16.70;32.80;;;;;;4996345;28;20448;-42
2022/09/16 04:23:38;;;;;;;14.00;13.50;;;16.70;32.50;;;;;;4996632;28;20436;-41
2022/09/16 04:26:04;;;;;;;14.53;13.70;;;16.90;32.60;;;;;;4996572;28;20196;-40
2022/09/16 04:28:31;;;;;;;13.40;12.90;;;17.00;31.90;;;;;;4996966;28;20181;-42
2022/09/16 04:31:05;;;;;;;13.50;12.90;;;17.00;31.80;;;;;;4996210;28;20259;-41
2022/09/16 04:33:32;;;;;;;15.07;14.27;;;17.00;32.00;;;;;;4996293;28;20826;-41
2022/09/16 04:36:11;;;;;;;13.73;13.23;;;17.20;31.70;;;;;;4996086;28;20415;-42
2022/09/16 04:38:37;;;;;;;14.37;13.40;;;17.20;31.20;;;;;;4996530;28;20416;-48
2022/09/16 04:41:07;;;;;;;14.03;13.43;;;17.20;31.30;;;;;;5013666;28;20408;-48
2022/09/16 04:43:33;;;;;;;13.03;12.43;;;17.20;31.70;;;;;;4996420;28;20413;-52
2022/09/16 04:45:59;;;;;;;13.33;12.70;;;17.20;32.20;;;;;;4996322;28;20485;-49
2022/09/16 04:48:25;;;;;;;13.50;12.87;;;17.20;32.30;;;;;;4995990;28;20182;-49
2022/09/16 04:50:52;;;;;;;14.27;13.67;;;17.20;32.70;;;;;;4995847;28;20408;-49
2022/09/16 04:53:19;;;;;;;14.53;13.83;;;17.20;33.00;;;;;;4996102;28;20412;-51
2022/09/16 04:55:45;;;;;;;13.80;13.20;;;17.20;32.80;;;;;;4996346;28;20994;-49
2022/09/16 04:58:11;;;;;;;14.33;13.57;;;17.20;32.20;;;;;;4996036;28;20432;-49
2022/09/16 05:00:37;;;;;;;14.60;14.00;;;17.20;32.70;;;;;;4995633;28;20412;-51
2022/09/16 05:03:03;;;;;;;14.20;13.70;;;17.20;32.50;;;;;;4995958;28;20184;-50
2022/09/16 05:05:28;;;;;;;15.13;14.33;;;17.20;32.00;;;;;;5013105;28;20547;-49
2022/09/16 05:07:54;;;;;;;14.33;13.73;;;17.20;32.10;;;;;;4995862;28;20184;-47
2022/09/16 05:10:20;;;;;;;15.07;14.27;;;17.20;31.50;;;;;;4996101;28;20490;-51
2022/09/16 05:12:51;;;;;;;14.10;13.50;;;17.10;32.10;;;;;;4996054;28;20216;-46
2022/09/16 05:15:17;;;;;;;13.57;12.80;;;17.00;32.50;;;;;;4995856;28;20672;-47
2022/09/16 05:17:42;;;;;;;14.20;13.63;;;17.10;32.90;;;;;;4995931;28;20503;-49
2022/09/16 05:20:09;;;;;;;14.63;14.03;;;17.10;33.90;;;;;;4995035;28;20416;-47
2022/09/16 05:22:34;;;;;;;14.87;14.17;;;17.10;34.90;;;;;;4995980;28;20653;-47
2022/09/16 05:25:00;;;;;;;15.53;14.77;;;17.00;34.90;;;;;;4995580;28;20524;-46
2022/09/16 05:27:30;;;;;;;15.10;14.30;;;17.10;35.10;;;;;;4995451;28;20220;-46
2022/09/16 05:29:55;;;;;;;14.43;13.83;;;17.00;34.70;;;;;;4994930;28;20196;-46
2022/09/16 05:32:21;;;;;;;14.87;14.00;;;17.00;34.50;;;;;;4995313;28;20460;-47
2022/09/16 05:34:48;;;;;;;15.43;14.57;;;17.00;35.10;;;;;;4995234;28;20193;-47
2022/09/16 05:37:14;;;;;;;15.93;15.10;;;17.00;35.60;;;;;;4995258;28;20181;-46
2022/09/16 05:39:39;;;;;;;14.60;14.00;;;17.00;36.00;;;;;;4995193;28;20420;-48
2022/09/16 05:42:05;;;;;;;15.27;14.40;;;17.00;35.40;;;;;;4994696;28;20181;-46
2022/09/16 05:44:31;;;;;;;16.40;15.60;;;16.90;35.40;;;;;;4995124;28;20184;-42
2022/09/16 05:46:57;;;;;;;16.33;15.63;;;17.00;36.00;;;;;;4995041;28;20428;-41
2022/09/16 05:49:22;;;;;;;15.97;15.23;;;17.00;36.10;;;;;;4994908;28;20188;-47
2022/09/16 05:51:49;;;;;;;15.50;14.80;;;16.90;36.00;;;;;;4994539;28;20209;-49
2022/09/16 05:54:17;;;;;;;15.07;14.37;;;16.90;36.50;;;;;;4994850;28;20174;-48
2022/09/16 05:56:42;;;;;;;17.50;16.43;;;16.90;35.70;;;;;;4994923;28;20435;-41
2022/09/16 05:59:10;;;;;;;16.10;15.40;;;16.90;35.70;;;;;;4994914;28;20412;-51
2022/09/16 06:01:36;;;;;;;15.07;14.47;;;16.80;36.50;;;;;;4994631;28;20276;-51
2022/09/16 06:04:04;;;;;;;15.77;14.70;;;16.90;36.50;;;;;;4994547;28;20495;-53
2022/09/16 06:06:38;;;;;;;15.13;14.53;;;16.80;36.00;;;;;;4994989;28;20173;-52
2022/09/16 06:09:16;;;;;;;15.30;14.70;;;16.90;37.10;;;;;;4994719;28;20416;-48
2022/09/16 06:11:47;;;;;;;16.50;15.50;;;16.90;37.00;;;;;;4994305;28;21021;-51
2022/09/16 06:14:13;;;;;;;15.40;14.70;;;16.90;37.60;;;;;;4994630;28;20415;-49
2022/09/16 06:16:39;;;;;;;14.83;14.03;;;16.90;37.60;;;;;;4994070;28;20912;-46
2022/09/16 06:19:09;;;;;;;15.20;14.10;;;16.90;37.60;;;;;;4994614;28;20483;-47
2022/09/16 06:21:36;;;;;;;14.80;14.20;;;16.80;36.90;;;;;;4994055;28;20416;-51
2022/09/16 06:24:02;;;;;;;15.03;14.33;;;16.80;37.50;;;;;;4994302;28;20415;-48
2022/09/16 06:26:28;;;;;;;14.03;13.33;;;16.80;37.50;;;;;;4994501;28;20470;-49
2022/09/16 06:28:54;;;;;;;13.33;12.80;;;16.80;37.50;;;;;;4994499;28;20499;-46
2022/09/16 06:31:25;;;;;;;14.60;13.93;;;16.80;37.50;;;;;;4994202;28;20363;-48
2022/09/16 06:33:52;;;;;;;13.57;13.00;;;16.80;37.10;;;;;;4993922;28;20500;-52
2022/09/16 06:36:20;;;;;;;13.70;13.10;;;16.80;37.50;;;;;;4994318;28;20819;-48
2022/09/16 06:38:47;;;;;;;14.40;13.80;;;16.80;37.50;;;;;;4994377;28;20496;-48
2022/09/16 06:41:14;;;;;;;13.80;13.30;;;16.80;37.50;;;;;;4994529;28;20416;-43
2022/09/16 06:43:40;;;;;;;13.70;13.00;;;16.80;37.40;;;;;;4994210;28;20466;-42
2022/09/16 06:46:15;;;;;;;13.97;13.30;;;16.80;37.50;;;;;;4994116;28;20431;-41
2022/09/16 06:48:45;;;;;;;14.43;13.27;;;16.80;37.50;;;;;;4993908;28;20478;-44
2022/09/16 06:51:16;;;;;;;14.97;14.17;;;16.70;37.40;;;;;;5011714;28;20536;-41
2022/09/16 06:53:42;;;;;;;13.70;12.90;;;16.70;37.40;;;;;;4994328;28;20508;-45
2022/09/16 06:56:11;;;;;;;13.27;12.77;;;16.70;37.40;;;;;;4994711;28;20418;-47
2022/09/16 06:58:41;;;;;;;13.40;12.90;;;16.70;38.20;;;;;;4993816;28;20413;-47
2022/09/16 07:01:08;;;;;;;12.87;12.37;;;16.70;38.50;;;;;;4993826;28;20412;-50
2022/09/16 07:03:39;;;;;;;14.40;13.40;;;16.60;38.80;;;;;;4994185;28;20417;-50
2022/09/16 07:06:06;;;;;;;13.40;12.83;;;16.60;38.70;;;;;;4993869;28;20412;-52
2022/09/16 07:08:33;;;;;;;14.33;13.33;;;16.70;39.10;;;;;;4993748;28;20439;-47
2022/09/16 07:11:02;;;;;;;13.67;12.70;;;16.60;39.40;;;;;;4993549;28;20412;-52
2022/09/16 07:13:28;;;;;;;14.57;13.87;;;16.60;39.30;;;;;;4994202;28;20816;-51
2022/09/16 07:15:53;;;;;;;14.30;13.60;;;16.60;39.80;;;;;;4994142;28;20444;-50
2022/09/16 07:18:20;;;;;;;14.93;13.87;;;16.60;40.20;;;;;;4993988;28;20415;-50
2022/09/16 07:20:45;;;;;;;13.83;13.23;;;16.50;40.00;;;;;;4993750;28;20413;-48
2022/09/16 07:23:11;;;;;;;14.73;13.70;;;16.40;39.80;;;;;;4993872;28;20450;-44
2022/09/16 07:25:36;;;;;;;14.10;13.47;;;16.30;39.80;;;;;;4993806;28;20684;-43
2022/09/16 07:28:02;;;;;;;14.60;14.00;;;16.30;40.60;;;;;;4993950;28;20192;-41
2022/09/16 07:30:29;;;;;;;15.60;14.80;;;16.20;42.00;;;;;;5011661;28;20181;-46
2022/09/16 07:32:56;;;;;;;14.20;13.40;;;16.20;41.60;;;;;;4993424;28;20245;-49
2022/09/16 07:35:21;;;;;;;14.40;13.60;;;16.20;42.30;;;;;;4994040;28;20465;-48
2022/09/16 07:37:47;;;;;;;14.80;14.00;;;16.20;42.20;;;;;;4993866;28;20498;-51
2022/09/16 07:40:13;;;;;;;13.60;13.00;;;16.20;42.60;;;;;;5011473;28;20207;-52
2022/09/16 07:42:39;;;;;;;14.90;14.00;;;16.20;42.60;;;;;;5011365;28;20518;-49
2022/09/16 07:45:05;;;;;;;14.60;13.80;;;16.10;43.10;;;;;;4997222;28;20834;-51
2022/09/16 07:47:31;;;;;;;15.40;14.30;;;16.10;42.20;;;;;;4997128;28;20805;-47
2022/09/16 07:49:58;;;;;;;13.90;13.20;;;16.10;42.00;;;;;;4997355;28;20408;-48
2022/09/16 07:52:28;;;;;;;14.63;13.80;;;16.10;42.50;;;;;;4997259;28;20879;-50
2022/09/16 07:54:57;;;;;;;13.40;12.70;;;16.10;42.00;;;;;;4997283;28;20412;-46
2022/09/16 07:57:23;;;;;;;12.80;12.30;;;16.00;42.60;;;;;;5015171;28;20496;-42
2022/09/16 07:59:49;;;;;;;12.57;12.00;;;16.10;42.60;;;;;;4997003;28;20995;-43
2022/09/16 08:02:15;;;;;;;12.80;12.20;;;16.10;42.60;;;;;;4996466;28;20416;-47
2022/09/16 08:04:41;;;;;;;13.80;13.10;;;16.10;42.50;;;;;;4997238;28;20869;-41
2022/09/16 08:07:07;;;;;;;13.87;13.17;;;16.10;41.90;;;;;;4996848;28;20789;-42
2022/09/16 08:09:33;;;;;;;13.23;12.60;;;16.20;42.00;;;;;;4997030;28;20827;-42
2022/09/16 08:12:02;;;;;;;13.57;12.57;;;16.20;42.30;;;;;;4996156;28;20479;-43
2022/09/16 08:14:28;;;;;;;15.00;14.30;;;16.10;41.60;;;;;;4996787;28;20174;-44
2022/09/16 08:16:53;;;;;;;13.17;12.60;;;15.80;43.70;;;;;;5014477;28;20420;-51
2022/09/16 08:19:21;;;;;;;14.37;13.20;;;15.60;45.10;;;;;;4996572;28;20205;-49
2022/09/16 08:21:46;;;;;;;13.53;12.70;;;15.30;47.60;;;;;;4996151;28;20189;-48
2022/09/16 08:24:12;;;;;;;12.80;12.30;;;15.20;48.50;;;;;;4996186;28;20431;-46
2022/09/16 08:26:37;;;;;;;12.73;12.13;;;15.30;47.70;;;;;;4996675;28;20661;-51
2022/09/16 08:29:03;;;;;;;14.00;13.00;;;15.30;47.70;;;;;;4996890;28;20188;-50
2022/09/16 08:31:29;;;;;;;13.80;12.67;;;15.50;46.50;;;;;;4980290;28;20229;-47
2022/09/16 08:33:55;;;;;;;13.70;12.90;;;15.70;46.60;;;;;;4996039;28;20185;-49
2022/09/16 08:36:22;;;;;;;13.23;12.40;;;15.80;45.60;;;;;;4996314;28;20788;-42
2022/09/16 08:38:51;;;;;;;12.73;12.17;;;15.90;44.00;;;;;;5013545;28;20189;-47
2022/09/16 08:41:38;;;;;;;13.33;12.77;;;16.00;43.80;;;;;;4996009;28;20437;-49
2022/09/16 08:44:27;;;;;;;13.93;13.33;;;16.10;43.80;;;;;;4996361;28;20420;-48
2022/09/16 08:46:59;;;;;;;13.33;12.73;;;16.10;43.50;;;;;;4996430;28;20791;-49
2022/09/16 08:49:40;;;;;;;14.00;13.30;;;16.20;43.20;;;;;;5013384;28;20806;-48
2022/09/16 08:52:29;;;;;;;14.40;13.70;;;16.10;43.40;;;;;;4995969;28;20463;-49
2022/09/16 08:55:03;;;;;;;14.27;13.63;;;16.00;43.60;;;;;;4995093;28;20425;-48
2022/09/16 08:57:32;;;;;;;12.80;12.03;;;16.10;43.10;;;;;;4996095;28;20419;-47
2022/09/16 09:00:03;;;;;;;13.83;13.03;;;16.00;43.60;;;;;;4995520;28;20421;-41
2022/09/16 09:02:59;;;;;;;13.70;13.00;;;15.60;45.80;;;;;;4995812;28;20413;-44
2022/09/16 09:05:47;;;;;;;13.67;12.97;;;15.30;47.20;;;;;;4995917;28;20818;-43
2022/09/16 09:08:37;;;;;;;13.23;12.70;;;15.10;47.70;;;;;;4995908;28;20443;-48
2022/09/16 09:11:21;;;;;;;14.10;13.40;;;15.00;48.40;;;;;;4995371;28;20416;-43
2022/09/16 09:13:50;;;;;;;13.97;12.97;;;14.80;47.50;;;;;;4995695;28;20430;-43
2022/09/16 09:16:23;;;;;;;12.10;11.63;;;14.90;47.10;;;;;;4995604;28;20913;-42
2022/09/16 09:19:00;;;;;;;13.77;12.77;;;14.90;46.20;;;;;;4995709;28;20516;-48
2022/09/16 09:21:41;;;;;;;12.50;11.90;;;14.90;46.70;;;;;;4995336;28;20424;-47
2022/09/16 09:24:22;;;;;;;11.70;11.20;;;15.00;47.70;;;;;;4994703;28;20456;-50
2022/09/16 09:26:50;;;;;;;11.80;11.30;;;14.90;46.20;;;;;;5013543;28;20424;-50
2022/09/16 09:29:48;;;;;;;13.50;12.80;;;15.00;47.10;;;;;;4995609;28;20427;-51
2022/09/16 09:32:31;;;;;;;12.77;12.00;;;15.00;47.70;;;;;;4995167;28;20467;-53
2022/09/16 09:35:22;;;;;;;11.93;11.37;;;15.10;47.00;;;;;;4995257;28;20818;-42
2022/09/16 09:37:56;;;;;;;12.80;12.00;;;15.30;46.40;;;;;;4995180;28;20417;-49
2022/09/16 09:40:37;;;;;;;12.67;12.17;;;15.30;45.50;;;;;;4994536;28;20865;-41
2022/09/16 09:43:15;;;;;;;14.20;13.43;;;15.10;46.10;;;;;;4995536;28;20428;-44
2022/09/16 09:46:08;;;;;;;13.03;12.40;;;15.10;46.10;;;;;;4994820;28;20486;-44
2022/09/16 09:48:43;;;;;;;12.20;11.70;;;14.90;47.10;;;;;;4995258;28;20460;-42
2022/09/16 09:51:29;;;;;;;14.40;13.80;;;14.80;47.30;;;;;;4994592;28;20900;-43
2022/09/16 09:54:16;;;;;;;13.60;12.70;;;14.70;48.70;;;;;;4994516;28;20416;-40
2022/09/16 09:56:44;;;;;;;12.10;11.47;;;14.90;48.50;;;;;;5012412;28;20408;-44
2022/09/16 09:59:35;;;;;;;13.20;12.47;;;14.90;48.40;;;;;;4995094;28;20506;-45
2022/09/16 10:02:02;;;;;;;12.90;12.00;;;15.10;48.50;;;;;;4994992;28;20485;-43
2022/09/16 10:04:38;;;;;;;12.77;12.17;;;15.00;47.60;;;;;;4994785;28;20424;-47
2022/09/16 10:07:04;;;;;;;12.30;11.80;;;14.90;49.00;;;;;;4993545;28;20889;-44
2022/09/16 10:09:30;;;;;;;13.10;12.50;;;14.90;49.90;;;;;;4994515;28;20430;-45
2022/09/16 10:11:56;;;;;;;12.67;11.70;;;14.90;50.20;;;;;;4994355;28;20460;-46
2022/09/16 10:14:28;;;;;;;12.00;11.40;;;14.90;50.70;;;;;;4994304;28;20426;-42
2022/09/16 10:16:54;;;;;;;12.07;11.47;;;14.90;50.00;;;;;;4994401;28;20180;-47
2022/09/16 10:19:23;;;;;;;12.50;11.67;;;14.90;49.70;;;;;;4994452;28;20420;-43
2022/09/16 10:21:54;;;;;;;12.30;11.70;;;14.90;49.20;;;;;;4993991;28;20446;-44
2022/09/16 10:24:34;;;;;;;15.10;13.93;;;15.00;47.20;;;;;;4994584;28;20424;-44
2022/09/16 10:27:16;;;;;;;12.23;11.73;;;15.00;47.70;;;;;;4993998;28;20431;-46
2022/09/16 10:29:42;;;;;;;13.37;12.80;;;15.10;47.90;;;;;;4993796;28;20413;-46
2022/09/16 10:32:13;;;;;;;12.80;11.83;;;15.10;49.10;;;;;;4993978;28;20471;-45
2022/09/16 10:34:41;;;;;;;12.83;12.13;;;15.10;48.80;;;;;;4994069;28;20557;-43
2022/09/16 10:37:10;;;;;;;13.20;12.43;;;15.10;48.10;;;;;;4993744;28;20428;-44
2022/09/16 10:39:42;;;;;;;12.60;12.00;;;15.00;47.10;;;;;;4994212;28;20531;-42
2022/09/16 10:42:28;;;;;;;13.10;12.40;;;15.10;48.60;;;;;;5011754;28;20476;-44
2022/09/16 10:45:12;;;;;;;12.73;12.20;;;15.10;46.50;;;;;;4994179;28;20424;-44
2022/09/16 10:47:39;;;;;;;14.17;13.57;;;15.20;46.60;;;;;;4994016;28;20424;-43
2022/09/16 10:50:06;;;;;;;12.93;12.33;;;15.20;46.20;;;;;;4993725;28;20420;-46
2022/09/16 10:52:41;;;;;;;13.97;12.80;;;15.20;46.90;;;;;;5011186;28;20952;-46
2022/09/16 10:55:29;;;;;;;13.17;12.57;;;15.10;46.10;;;;;;4993759;28;20934;-48
2022/09/16 10:58:15;;;;;;;12.17;11.77;;;15.10;46.70;;;;;;4994092;28;20507;-49
2022/09/16 11:01:19;;;;;;;12.30;11.80;;;15.10;47.00;;;;;;4993774;28;20428;-54
2022/09/16 11:03:50;;;;;;;12.57;11.67;;;15.10;46.50;;;;;;4990781;28;20416;-50
2022/09/16 11:06:21;;;;;;;11.80;11.20;;;15.10;47.00;;;;;;4994161;28;20448;-44
2022/09/16 11:09:29;;;;;;;13.40;12.50;;;15.30;46.30;;;;;;4993724;28;20408;-46
2022/09/16 11:12:30;;;;;;;12.40;11.90;;;15.30;46.00;;;;;;4947146;28;20903;-48
2022/09/16 11:15:30;;;;;;;13.43;12.83;;;15.20;46.50;;;;;;4970061;28;20432;-53
2022/09/16 11:18:05;;;;;;;14.40;13.53;;;15.20;45.80;;;;;;4983158;28;20486;-41
2022/09/16 11:20:54;;;;;;;14.57;13.87;;;15.20;46.20;;;;;;4997097;28;20783;-42
2022/09/16 11:23:38;;;;;;;13.40;12.70;;;15.30;45.90;;;;;;4997557;28;20420;-46
2022/09/16 11:26:25;;;;;;;13.00;12.30;;;15.20;46.20;;;;;;5014767;28;20432;-44
2022/09/16 11:29:24;;;;;;;13.40;12.80;;;15.30;46.30;;;;;;4996728;28;20419;-41
2022/09/16 11:32:32;;;;;;;14.00;13.40;;;15.40;45.20;;;;;;5015336;28;20451;-42
2022/09/16 11:35:18;;;;;;;13.60;12.63;;;15.30;43.50;;;;;;4997684;28;20447;-43
2022/09/16 11:37:57;;;;;;;13.47;12.87;;;15.30;44.60;;;;;;4996389;28;20439;-48
2022/09/16 11:40:46;;;;;;;13.13;12.53;;;15.50;45.70;;;;;;4997000;28;20434;-48
2022/09/16 11:43:21;;;;;;;12.70;12.20;;;15.70;43.60;;;;;;4996663;28;20428;-49
2022/09/16 11:46:08;;;;;;;14.50;13.80;;;16.00;41.30;;;;;;4996462;28;20465;-49
2022/09/16 11:48:49;;;;;;;14.37;13.37;;;16.10;38.70;;;;;;4996478;28;20498;-47
2022/09/16 11:51:33;;;;;;;14.17;13.57;;;16.30;38.30;;;;;;4996866;28;20424;-48
2022/09/16 11:54:36;;;;;;;13.73;13.23;;;16.20;37.00;;;;;;4997400;28;20420;-51
2022/09/16 11:57:07;;;;;;;14.53;13.83;;;15.90;36.70;;;;;;4996253;28;20426;-47
2022/09/16 11:59:58;;;;;;;13.40;12.80;;;15.70;38.10;;;;;;4996648;28;20463;-53
2022/09/16 12:02:26;;;;;;;13.40;12.80;;;15.50;38.10;;;;;;4996812;28;20497;-47
2022/09/16 12:05:00;;;;;;;11.77;11.37;;;15.50;38.80;;;;;;4996459;28;20421;-44
2022/09/16 12:07:36;;;;;;;12.70;12.20;;;15.70;39.20;;;;;;4996807;28;20500;-41
2022/09/16 12:10:17;;;;;;;12.80;12.20;;;15.90;38.00;;;;;;4995987;28;20428;-45
2022/09/16 12:12:51;;;;;;;12.60;11.90;;;15.90;36.70;;;;;;4996583;28;20896;-44
2022/09/16 12:15:26;;;;;;;12.80;12.00;;;15.80;34.40;;;;;;4995946;28;20473;-42
2022/09/16 12:18:00;;;;;;;13.10;12.50;;;15.80;34.80;;;;;;4996068;28;20915;-47
2022/09/16 12:20:32;;;;;;;13.00;12.50;;;15.70;30.60;;;;;;4996653;28;20931;-47
2022/09/16 12:23:05;;;;;;;12.93;12.33;;;15.70;32.60;;;;;;4996435;28;20473;-46
2022/09/16 12:25:44;;;;;;;12.93;12.37;;;15.60;34.30;;;;;;5013712;28;20432;-44
2022/09/16 12:28:24;;;;;;;11.57;10.93;;;15.80;34.70;;;;;;5013692;28;20427;-51
2022/09/16 12:31:03;;;;;;;12.90;12.30;;;15.80;32.20;;;;;;4994617;28;20428;-45
2022/09/16 12:33:39;;;;;;;12.60;11.90;;;15.90;33.40;;;;;;4996427;28;20435;-48
2022/09/16 12:36:09;;;;;;;13.10;12.60;;;16.00;32.10;;;;;;5013509;28;20764;-41
2022/09/16 12:38:36;;;;;;;13.80;13.00;;;16.00;31.10;;;;;;4995786;28;20522;-49
2022/09/16 12:41:07;;;;;;;13.10;12.60;;;16.10;30.20;;;;;;4995717;28;20422;-41
2022/09/16 12:43:52;;;;;;;13.83;13.03;;;16.00;29.40;;;;;;4995983;28;20520;-41
2022/09/16 12:46:23;;;;;;;13.70;13.10;;;15.90;29.20;;;;;;4995707;28;20920;-46
2022/09/16 12:49:01;;;;;;;13.07;12.57;;;15.90;29.80;;;;;;4996348;28;20412;-41
2022/09/16 12:51:42;;;;;;;12.40;12.00;;;15.90;29.30;;;;;;4995409;28;20933;-45
2022/09/16 12:54:42;;;;;;;13.50;12.63;;;16.00;30.20;;;;;;4995391;28;20428;-44
2022/09/16 12:57:39;;;;;;;13.33;12.83;;;16.10;30.00;;;;;;4995133;28;20456;-41